• Join FlightAware (Why Join?)
  • Login
  • US Flag 
07:33AM EST


 

Airport Tracker/Info


-or-


 

Live Flight TrackerFlight Track Log ✈ JAL405 ✈ 05-May-2013 ✈ RJAA / NRT - LFPG / CDG

Flight Track Log - Related Links

Times and Time Zones

All times are in EDT time to prevent confusion due to time zone crossing. See the JAL405 flight status page for this flight to view local times or setup timezone preferences in your user account.

Time Position Orientation Groundspeed Altitude Reporting Facility
EDT Latitude Longitude Course Direction KTS MPH feet Rate Location/Type
10:46PM 35.7920 140.3560 329° Northwest 209 241 1,100  Level FlightAware
10:46PM 35.8170 140.3370 328° Northwest 206 237 2,500 2,460 Climbing FlightAware
10:47PM 35.8390 140.3210 329° Northwest 210 242 3,400 1,800 Climbing FlightAware
10:47PM 35.8530 140.3120 332° Northwest 229 264 3,700 1,440 Climbing FlightAware
10:48PM 35.8830 140.2900 329° Northwest 264 304 4,500 2,040 Climbing FlightAware
10:48PM 35.9100 140.2700 329° Northwest 265 305 5,600 1,740 Climbing FlightAware
10:49PM 35.9420 140.2470 330° Northwest 262 302 6,100 960 Climbing FlightAware
10:49PM 35.9750 140.2230 330° Northwest 263 303 6,600 840 Climbing FlightAware
10:49PM 36.0020 140.2030 329° Northwest 264 304 6,900 300 Climbing FlightAware
10:50PM 36.0340 140.1800 330° Northwest 264 304 6,900  Level FlightAware
10:50PM 36.0630 140.1490 319° Northwest 264 304 6,900  Level FlightAware
10:51PM 36.0840 140.1200 312° West 275 316 6,900  Level FlightAware
10:51PM 36.1100 140.0850 313° West 278 320 6,900  Level FlightAware
10:52PM 36.1310 140.0560 312° West 275 316 6,900  Level FlightAware
10:52PM 36.1570 140.0200 312° West 277 319 6,900  Level FlightAware
10:53PM 36.1790 139.9900 312° West 278 320 6,900 420 Level FlightAware
10:53PM 36.2030 139.9570 312° West 277 319 7,300 1,260 Climbing FlightAware
10:54PM 36.2290 139.9230 313° West 276 318 8,100 1,800 Climbing FlightAware
10:54PM 36.2380 139.9090 309° West 285 328 8,500 1,860 Climbing FlightAware
10:54PM 36.2650 139.8720 312° West 279 321 9,500 1,680 Climbing FlightAware
10:55PM 36.3020 139.8220 313° West 302 348 10,500 1,320 Climbing FlightAware
10:56PM 36.3520 139.7540 312° West 351 404 11,400 1,500 Climbing FlightAware
10:56PM 36.4020 139.6980 318° Northwest 370 426 12,700 1,800 Climbing FlightAware
10:57PM 36.4670 139.6710 342° North 368 423 13,800 1,500 Climbing FlightAware
10:58PM 36.5400 139.6440 343° North 369 425 14,900 1,380 Climbing FlightAware
10:59PM 36.6110 139.6190 344° North 383 441 15,800 1,200 Climbing FlightAware
10:59PM 36.6860 139.5910 343° North 374 430 16,600 1,020 Climbing FlightAware
11:00PM 36.7470 139.5690 344° North 386 444 17,200 960 Climbing FlightAware
11:01PM 36.8140 139.5440 343° North 384 442 17,800 900 Climbing FlightAware
11:01PM 36.9070 139.5090 343° North 390 449 18,700 1,140 Climbing FlightAware
11:02PM 36.9900 139.4790 344° North 401 461 19,700 1,620 Climbing FlightAware
11:04PM 37.1460 139.4060 340° North 425 489 22,400 1,740 Climbing FlightAware
11:05PM 37.2720 139.3140 330° Northwest 432 497 24,600 1,680 Climbing FlightAware
11:06PM 37.4000 139.2200 330° Northwest 450 518 26,600 1,620 Climbing FlightAware
11:07PM 37.5190 139.1320 330° Northwest 448 516 28,400 1,200 Climbing FlightAware
11:08PM 37.6130 139.0630 330° Northwest 461 531 29,000 420 Climbing FlightAware
11:09PM 37.6760 139.0170 330° Northwest 451 519 29,000  Level FlightAware
11:09PM 37.7580 138.9560 330° Northwest 451 519 29,000  Level FlightAware
11:10PM 37.8400 138.8940 329° Northwest 453 521 29,000  Level FlightAware
11:11PM 37.9020 138.8480 330° Northwest 453 521 29,000  Level FlightAware
11:11PM 37.9750 138.7940 330° Northwest 453 521 29,000 60 Level FlightAware
11:12PM 38.0970 138.7020 329° Northwest 466 536 29,200 960 Climbing FlightAware
11:13PM 38.1690 138.6490 330° Northwest 457 526 30,700 1,980 Climbing FlightAware
11:14PM 38.2440 138.5920 329° Northwest 455 524 31,900 900 Climbing FlightAware
11:15PM 38.3280 138.5290 330° Northwest 460 529 32,000 60 Climbing FlightAware
11:15PM 38.3970 138.4760 329° Northwest 460 529 32,000  Level FlightAware
11:16PM 38.4840 138.4100 329° Northwest 455 524 32,000  Level FlightAware
11:17PM 38.5440 138.3650 330° Northwest 456 525 32,000  Level FlightAware
11:17PM 38.6310 138.2980 329° Northwest 464 534 32,000  Level FlightAware
11:18PM 38.7120 138.2530 337° Northwest 467 537 32,000  Level FlightAware
11:18PM 38.7710 138.2450 354° North 472 543 32,000  Level FlightAware
11:19PM 38.8900 138.2450 360° North 475 547 32,000  Level FlightAware
11:20PM 38.9560 138.2460 North 475 547 32,000  Level FlightAware
11:21PM 39.0580 138.2460 360° North 468 539 32,000  Level FlightAware
11:21PM 39.1240 138.2460 360° North 468 539 32,000  Level FlightAware
11:22PM 39.2040 138.2460 360° North 470 541 32,000  Level FlightAware
11:22PM 39.3020 138.2460 360° North 470 541 32,000  Level FlightAware
11:23PM 39.4010 138.2460 360° North 469 540 32,000  Level FlightAware
11:24PM 39.4910 138.2460 360° North 470 541 32,000  Level FlightAware
11:25PM 39.5890 138.2460 360° North 470 541 32,000  Level FlightAware
11:25PM 39.6760 138.2460 360° North 479 551 32,000  Level FlightAware
11:26PM 39.7770 138.2460 360° North 470 541 32,000  Level FlightAware
11:27PM 39.8440 138.2460 360° North 479 551 32,000  Level FlightAware
11:27PM 39.9430 138.2460 360° North 470 541 32,000  Level FlightAware
11:28PM 40.0510 138.2460 360° North 467 537 32,000  Level FlightAware
11:29PM 40.1410 138.2460 360° North 464 534 32,000  Level FlightAware
11:29PM 40.2250 138.2460 360° North 464 534 32,000  Level FlightAware
11:30PM 40.3280 138.2460 360° North 464 534 32,000  Level FlightAware
11:31PM 40.4150 138.2460 360° North 468 539 32,000  Level FlightAware
11:32PM 40.5130 138.2460 360° North 468 539 32,000  Level FlightAware
11:32PM 40.6020 138.2460 360° North 465 535 32,000  Level FlightAware
11:33PM 40.6840 138.2460 360° North 465 535 32,000  Level FlightAware
11:34PM 40.7890 138.2460 360° North 467 537 32,000  Level FlightAware
11:35PM 40.9050 138.2460 360° North 467 537 32,000  Level FlightAware
11:35PM 41.0090 138.2460 360° North 467 537 32,000  Level FlightAware
11:36PM 41.0930 138.2460 360° North 468 539 32,000  Level FlightAware
11:37PM 41.1840 138.2460 360° North 467 537 32,000  Level FlightAware
11:37PM 41.2850 138.2460 360° North 466 536 32,000  Level FlightAware
11:38PM 41.3650 138.2460 360° North 466 536 32,000  Level FlightAware
11:39PM 41.4570 138.2460 360° North 465 535 32,000  Level FlightAware
11:40PM 41.5550 138.2460 360° North 464 534 32,000  Level FlightAware
11:40PM 41.6330 138.2460 360° North 464 534 32,000  Level FlightAware
11:42PM 41.8410 138.2460 360° North 463 533 32,000  Level FlightAware
11:43PM 42.0100 138.2460 360° North 470 541 32,000  Level FlightAware
11:44PM 42.1260 138.2460 360° North 469 540 32,000  Level FlightAware
11:45PM 42.2280 138.2460 360° North 469 540 32,000  Level FlightAware
11:45PM 42.3180 138.2460 360° North 468 539 32,000  Level FlightAware
11:46PM 42.3980 138.2460 360° North 468 539 32,000  Level FlightAware
11:47PM 42.5110 138.2460 360° North 468 539 32,000  Level FlightAware
11:48PM 42.6010 138.2450 360° North 469 540 32,000  Level FlightAware
11:48PM 42.6750 138.2430 359° North 469 540 32,000  Level FlightAware
11:49PM 42.7490 138.2410 359° North 469 540 32,000  Level FlightAware
11:50PM 42.8220 138.2390 359° North 469 540 32,000  Level FlightAware
11:50PM 42.8960 138.2380 359° North 469 540 32,000  Level FlightAware
11:51PM 42.9880 138.2360 359° North 469 540 32,000  Level FlightAware
11:52PM 43.0620 138.2340 359° North 469 540 32,000  Level FlightAware
11:53PM 43.1360 138.2320 359° North 469 540 32,000  Level FlightAware
11:53PM 43.2100 138.2300 359° North 469 540 32,000  Level FlightAware
11:53PM 43.3530 138.2470 North 463 533 32,000  Level FlightAware
11:54PM 43.4370 138.2550 North 463 533 32,000  Level FlightAware
11:55PM 43.5280 138.2630 North 463 533 32,000  Level FlightAware
11:56PM 43.6740 138.2440 355° North 469 540 32,000  Level FlightAware
11:56PM 43.7470 138.2380 357° North 469 540 32,000  Level FlightAware
11:57PM 43.8400 138.2320 357° North 469 540 32,000  Level FlightAware
11:58PM 43.9130 138.2260 357° North 469 540 32,000  Level FlightAware
11:59PM 43.9870 138.2210 357° North 469 540 32,000  Level FlightAware
11:59PM 44.0610 138.2160 357° North 469 540 32,000  Level FlightAware
12:00AM 44.1340 138.2100 357° North 469 540 32,000  Level FlightAware
12:01AM 44.2260 138.2030 357° North 469 540 32,000  Level FlightAware
12:01AM 44.3000 138.1980 357° North 469 540 32,000  Level FlightAware
12:02AM 44.3740 138.1930 357° North 469 540 32,000  Level FlightAware
12:03AM 44.4470 138.1870 357° North 469 540 32,000  Level FlightAware
12:03AM 44.5210 138.1820 357° North 469 540 32,000  Level FlightAware
12:04AM 44.6130 138.1750 357° North 469 540 32,000  Level FlightAware
12:05AM 44.6870 138.1700 357° North 469 540 32,000  Level FlightAware
12:05AM 44.7420 138.1660 357° North 469 540 32,000  Level FlightAware
12:08AM 44.9711 137.9944 332° Northwest  Level Estimated
12:09AM 45.0828 137.9101 332° Northwest  Level Estimated
12:10AM 45.1944 137.8256 332° Northwest  Level Estimated
12:11AM 45.3060 137.7407 332° Northwest  Level Estimated
12:12AM 45.4176 137.6553 332° Northwest  Level Estimated
12:13AM 45.5292 137.5696 332° Northwest  Level Estimated
12:14AM 45.6408 137.4836 332° Northwest  Level Estimated
12:15AM 45.7522 137.3972 332° Northwest  Level Estimated
12:16AM 45.8636 137.3105 332° Northwest  Level Estimated
12:16AM 46.2500 138.0860 332° Northwest 466 536 32,000  Level FlightAware
12:17AM 46.3350 138.0810 358° North 466 536 32,000  Level FlightAware
12:17AM 46.4310 138.0740 357° North 465 535 32,000  Level FlightAware
12:18AM 46.4990 138.0670 356° North 463 533 32,000  Level FlightAware
12:19AM 46.5870 138.0360 346° North 460 529 32,000  Level FlightAware
12:19AM 46.6800 137.9910 342° North 460 529 32,000  Level FlightAware
12:20AM 46.7460 137.9590 342° North 460 529 32,000  Level FlightAware
12:21AM 46.8460 137.9100 341° North 460 529 32,000  Level FlightAware
12:22AM 46.9400 137.8630 341° North 460 529 32,000  Level FlightAware
12:22AM 47.0180 137.8250 342° North 460 529 32,000  Level FlightAware
12:23AM 47.1050 137.7830 342° North 458 527 32,000  Level FlightAware
12:24AM 47.1820 137.7440 341° North 460 529 32,000  Level FlightAware
12:24AM 47.2770 137.6970 341° North 461 531 32,000  Level FlightAware
12:25AM 47.3550 137.6580 341° North 463 533 32,000  Level FlightAware
12:26AM 47.4420 137.6150 342° North 464 534 32,000  Level FlightAware
12:26AM 47.5190 137.5760 341° North 464 534 32,000  Level FlightAware
12:27AM 47.6140 137.5280 341° North 463 533 32,000  Level FlightAware
12:28AM 47.7020 137.4840 341° North 464 534 32,000  Level FlightAware
12:28AM 47.7800 137.4440 341° North 463 533 32,000  Level FlightAware
12:29AM 47.8940 137.3860 341° North 463 533 32,000  Level FlightAware
12:30AM 47.9840 137.3400 341° North 463 533 32,000  Level FlightAware
12:31AM 48.0670 137.2980 341° North 464 534 32,000  Level FlightAware
12:32AM 48.1650 137.2480 341° North 465 535 32,000  Level FlightAware
12:32AM 48.2490 137.2040 341° North 466 536 32,000  Level FlightAware
12:33AM 48.3280 137.1630 341° North 466 536 32,000  Level FlightAware
12:34AM 48.4180 137.1170 341° North 465 535 32,000  Level FlightAware
12:34AM 48.5050 137.0710 341° North 465 535 32,000  Level FlightAware
12:35AM 48.5980 137.0230 341° North 464 534 32,000  Level FlightAware
12:36AM 48.6680 136.9860 341° North 464 534 32,000  Level FlightAware
12:36AM 48.7590 136.9390 341° North 463 533 32,000  Level FlightAware
12:37AM 48.8280 136.9020 341° North 463 533 32,000  Level FlightAware
12:38AM 48.9320 136.8350 337° Northwest 464 534 32,000  Level FlightAware
12:39AM 49.0390 136.7500 332° Northwest 465 535 32,000  Level FlightAware
12:40AM 49.1320 136.6740 332° Northwest 467 537 32,000  Level FlightAware
12:41AM 49.2500 136.5750 331° Northwest 466 536 32,000  Level FlightAware
12:41AM 49.3000 136.5340 332° Northwest 468 539 32,000  Level FlightAware
12:42AM 49.3970 136.4530 331° Northwest 467 537 32,000  Level FlightAware
12:43AM 49.4880 136.3770 332° Northwest 469 540 32,000  Level FlightAware
12:43AM 49.5540 136.3220 332° Northwest 469 540 32,000  Level FlightAware
12:44AM 49.6450 136.2450 331° Northwest 470 541 32,000  Level FlightAware
12:45AM 49.7240 136.1780 331° Northwest 469 540 32,000  Level FlightAware
12:46AM 49.8100 136.1060 332° Northwest 471 542 32,000  Level FlightAware
12:46AM 49.8850 136.0410 331° Northwest 471 542 32,000  Level FlightAware
12:47AM 49.9440 135.9910 331° Northwest 472 543 32,000  Level FlightAware
12:48AM 50.0480 135.9020 331° Northwest 474 545 32,000  Level FlightAware
12:48AM 50.1250 135.8350 331° Northwest 475 547 32,000  Level FlightAware
12:49AM 50.2030 135.7680 331° Northwest 475 547 32,000  Level FlightAware
12:50AM 50.2820 135.6990 331° Northwest 475 547 32,000  Level FlightAware
12:50AM 50.3610 135.6300 331° Northwest 477 549 32,000  Level FlightAware
12:51AM 50.4440 135.5570 331° Northwest 478 550 32,000  Level FlightAware
12:52AM 50.5340 135.4780 331° Northwest 476 548 32,000  Level FlightAware
12:52AM 50.6030 135.4170 331° Northwest 477 549 32,000  Level FlightAware
12:53AM 50.7030 135.3290 331° Northwest 477 549 32,000  Level FlightAware
12:54AM 50.7690 135.2710 331° Northwest 477 549 32,000  Level FlightAware
12:55AM 50.8590 135.1900 330° Northwest 478 550 32,000  Level FlightAware
12:55AM 50.9450 135.1080 329° Northwest 480 552 32,000  Level FlightAware
12:56AM 51.0170 135.0360 328° Northwest 480 552 32,000  Level FlightAware
12:57AM 51.1140 134.9400 328° Northwest 480 552 32,000  Level FlightAware
12:57AM 51.1850 134.8690 328° Northwest 481 554 32,000  Level FlightAware
12:58AM 51.2610 134.7930 328° Northwest 482 555 32,000  Level FlightAware
12:59AM 51.3490 134.7050 328° Northwest 483 556 32,000  Level FlightAware
01:00AM 51.4420 134.6120 328° Northwest 483 556 32,000  Level FlightAware
01:00AM 51.5090 134.5440 328° Northwest 483 556 32,000  Level FlightAware
01:01AM 51.6110 134.4420 328° Northwest 483 556 32,000  Level FlightAware
01:02AM 51.6870 134.3640 328° Northwest 485 558 32,000  Level FlightAware
01:03AM 51.7650 134.2850 328° Northwest 487 560 32,000  Level FlightAware
01:04AM 51.8380 134.2080 327° Northwest 487 560 32,000  Level FlightAware
01:04AM 51.9030 134.1400 327° Northwest 487 560 32,000  Level FlightAware
01:05AM 51.9670 134.0720 327° Northwest 487 560 32,000  Level FlightAware
01:06AM 52.0310 134.0050 327° Northwest 487 560 32,000  Level FlightAware
01:06AM 52.1120 133.9200 327° Northwest 487 560 32,000  Level FlightAware
01:07AM 52.1760 133.8520 327° Northwest 487 560 32,000  Level FlightAware
01:08AM 52.2400 133.7840 327° Northwest 487 560 32,000  Level FlightAware
01:08AM 52.3040 133.7150 327° Northwest 487 560 32,000  Level FlightAware
01:09AM 52.3680 133.6470 327° Northwest 487 560 32,000  Level FlightAware
01:10AM 52.4490 133.5620 327° Northwest 487 560 32,000  Level FlightAware
01:11AM 52.5130 133.4930 327° Northwest 487 560 32,000  Level FlightAware
01:11AM 52.5770 133.4240 327° Northwest 487 560 32,000  Level FlightAware
01:12AM 52.6420 133.3560 328° Northwest 487 560 32,000  Level FlightAware
01:13AM 52.7060 133.2870 327° Northwest 487 560 32,000  Level FlightAware
01:15AM 52.9171 133.0688 328° Northwest  Level Estimated
01:16AM 53.0242 132.9570 328° Northwest  Level Estimated
01:17AM 53.1315 132.8445 328° Northwest  Level Estimated
01:18AM 53.2386 132.7314 328° Northwest  Level Estimated
01:19AM 53.3456 132.6178 328° Northwest  Level Estimated
01:20AM 53.4525 132.5036 328° Northwest  Level Estimated
01:21AM 53.5592 132.3888 327° Northwest  Level Estimated
01:22AM 53.6659 132.2734 327° Northwest  Level Estimated
01:23AM 53.7725 132.1575 327° Northwest  Level Estimated
01:24AM 53.8789 132.0409 327° Northwest  Level Estimated
01:25AM 53.9853 131.9238 327° Northwest  Level Estimated
01:26AM 54.0915 131.8061 327° Northwest  Level Estimated
01:27AM 54.1976 131.6877 327° Northwest  Level Estimated
01:28AM 54.3036 131.5688 327° Northwest  Level Estimated
01:29AM 54.4095 131.4492 327° Northwest  Level Estimated
01:30AM 54.5152 131.3290 327° Northwest  Level Estimated
01:31AM 54.6208 131.2082 327° Northwest  Level Estimated
01:32AM 54.7263 131.0868 326° Northwest  Level Estimated
01:33AM 54.8317 130.9648 326° Northwest  Level Estimated
01:34AM 54.9370 130.8421 326° Northwest  Level Estimated
01:35AM 55.0421 130.7187 326° Northwest  Level Estimated
01:36AM 55.1473 130.5945 326° Northwest  Level Estimated
01:37AM 55.2523 130.4697 326° Northwest  Level Estimated
01:38AM 55.3573 130.3442 326° Northwest  Level Estimated
01:39AM 55.4621 130.2180 326° Northwest  Level Estimated
01:40AM 55.5667 130.0912 326° Northwest  Level Estimated
01:41AM 55.6712 129.9637 325° Northwest  Level Estimated
01:42AM 55.7756 129.8355 325° Northwest  Level Estimated
01:43AM 55.8799 129.7066 325° Northwest  Level Estimated
01:44AM 55.9840 129.5771 325° Northwest  Level Estimated
01:45AM 56.0880 129.4468 325° Northwest  Level Estimated
01:46AM 56.1919 129.3158 325° Northwest  Level Estimated
01:47AM 56.2956 129.1841 325° Northwest  Level Estimated
01:48AM 56.3991 129.0517 325° Northwest  Level Estimated
01:49AM 56.5026 128.9186 325° Northwest  Level Estimated
01:50AM 56.6059 128.7848 325° Northwest  Level Estimated
01:51AM 56.7090 128.6502 324° Northwest  Level Estimated
01:52AM 56.8120 128.5148 324° Northwest  Level Estimated
01:53AM 56.9150 128.3786 324° Northwest  Level Estimated
01:54AM 57.0178 128.2416 324° Northwest  Level Estimated
01:55AM 57.1205 128.1038 324° Northwest  Level Estimated
01:56AM 57.2231 127.9652 324° Northwest  Level Estimated
01:57AM 57.3255 127.8259 324° Northwest  Level Estimated
01:58AM 57.4277 127.6858 324° Northwest  Level Estimated
01:59AM 57.5298 127.5449 323° Northwest  Level Estimated
02:00AM 57.6317 127.4033 323° Northwest  Level Estimated
02:01AM 57.7335 127.2608 323° Northwest  Level Estimated
02:02AM 57.8351 127.1175 323° Northwest  Level Estimated
02:03AM 57.9365 126.9734 323° Northwest  Level Estimated
02:04AM 58.0378 126.8285 323° Northwest  Level Estimated
02:05AM 58.1389 126.6828 323° Northwest  Level Estimated
02:06AM 58.2398 126.5363 323° Northwest  Level Estimated
02:07AM 58.3406 126.3889 323° Northwest  Level Estimated
02:08AM 58.4412 126.2406 322° Northwest  Level Estimated
02:09AM 58.5416 126.0916 322° Northwest  Level Estimated
02:10AM 58.6419 125.9416 322° Northwest  Level Estimated
02:11AM 58.7420 125.7908 322° Northwest  Level Estimated
02:12AM 58.8419 125.6392 322° Northwest  Level Estimated
02:13AM 58.9416 125.4866 322° Northwest  Level Estimated
02:14AM 59.0412 125.3332 322° Northwest  Level Estimated
02:15AM 59.1405 125.1789 321° Northwest  Level Estimated
02:16AM 59.2397 125.0237 321° Northwest  Level Estimated
02:17AM 59.3387 124.8676 321° Northwest  Level Estimated
02:18AM 59.4375 124.7105 321° Northwest  Level Estimated
02:19AM 59.5361 124.5526 321° Northwest  Level Estimated
02:20AM 59.6345 124.3937 321° Northwest  Level Estimated
02:21AM 59.7328 124.2339 321° Northwest  Level Estimated
02:22AM 59.8308 124.0731 321° Northwest  Level Estimated
02:23AM 59.9287 123.9114 320° Northwest  Level Estimated
02:24AM 60.0263 123.7488 320° Northwest  Level Estimated
02:25AM 60.1237 123.5852 320° Northwest  Level Estimated
02:26AM 60.2210 123.4206 320° Northwest  Level Estimated
02:27AM 60.3180 123.2550 320° Northwest  Level Estimated
02:28AM 60.4148 123.0885 320° Northwest  Level Estimated
02:29AM 60.5115 122.9209 320° Northwest  Level Estimated
02:30AM 60.6079 122.7524 319° Northwest  Level Estimated
02:31AM 60.7041 122.5828 319° Northwest  Level Estimated
02:32AM 60.8000 122.4123 319° Northwest  Level Estimated
02:33AM 60.8958 122.2407 319° Northwest  Level Estimated
02:34AM 60.9913 122.0680 319° Northwest  Level Estimated
02:35AM 61.0867 121.8944 319° Northwest  Level Estimated
02:36AM 61.1818 121.7197 319° Northwest  Level Estimated
02:37AM 61.2766 121.5439 318° Northwest  Level Estimated
02:38AM 61.3713 121.3670 318° Northwest  Level Estimated
02:39AM 61.4657 121.1891 318° Northwest  Level Estimated
02:40AM 61.5598 121.0101 318° Northwest  Level Estimated
02:41AM 61.6538 120.8301 318° Northwest  Level Estimated
02:42AM 61.7475 120.6489 318° Northwest  Level Estimated
02:43AM 61.8409 120.4666 317° Northwest  Level Estimated
02:44AM 61.9342 120.2832 317° Northwest  Level Estimated
02:45AM 62.0271 120.0987 317° Northwest  Level Estimated
02:46AM 62.1199 119.9131 317° Northwest  Level Estimated
02:47AM 62.2123 119.7263 317° Northwest  Level Estimated
02:48AM 62.3045 119.5384 317° Northwest  Level Estimated
02:49AM 62.3965 119.3493 316° Northwest  Level Estimated
02:50AM 62.4882 119.1590 316° Northwest  Level Estimated
02:51AM 62.5797 118.9676 316° Northwest  Level Estimated
02:52AM 62.6709 118.7750 316° Northwest  Level Estimated
02:53AM 62.7618 118.5813 316° Northwest  Level Estimated
02:54AM 62.8524 118.3863 316° Northwest  Level Estimated
02:55AM 62.9428 118.1901 315° West  Level Estimated
02:56AM 63.0329 117.9927 315° West  Level Estimated
02:57AM 63.1227 117.7941 315° West  Level Estimated
02:58AM 63.2123 117.5942 315° West  Level Estimated
02:59AM 63.3016 117.3932 315° West  Level Estimated
03:00AM 63.3905 117.1908 315° West  Level Estimated
03:01AM 63.4793 116.9872 314° West  Level Estimated
03:02AM 63.5676 116.7824 314° West  Level Estimated
03:03AM 63.6558 116.5762 314° West  Level Estimated
03:04AM 63.7436 116.3688 314° West  Level Estimated
03:05AM 63.8311 116.1601 314° West  Level Estimated
03:06AM 63.9183 115.9501 313° West  Level Estimated
03:07AM 64.0052 115.7388 313° West  Level Estimated
03:08AM 64.0918 115.5262 313° West  Level Estimated
03:09AM 64.1781 115.3122 313° West  Level Estimated
03:10AM 64.2641 115.0969 313° West  Level Estimated
03:11AM 64.3497 114.8803 312° West  Level Estimated
03:12AM 64.4350 114.6623 312° West  Level Estimated
03:13AM 64.5200 114.4430 312° West  Level Estimated
03:14AM 64.6047 114.2223 312° West  Level Estimated
03:15AM 64.6891 114.0002 312° West  Level Estimated
03:16AM 64.7731 113.7767 311° West  Level Estimated
03:17AM 64.8567 113.5519 311° West  Level Estimated
03:18AM 64.9401 113.3256 311° West  Level Estimated
03:19AM 65.0231 113.0980 311° West  Level Estimated
03:20AM 65.1057 112.8689 311° West  Level Estimated
03:21AM 65.1880 112.6384 310° West  Level Estimated
03:22AM 65.2699 112.4064 310° West  Level Estimated
03:23AM 65.3515 112.1730 310° West  Level Estimated
03:24AM 65.4327 111.9382 310° West  Level Estimated
03:25AM 65.5135 111.7019 310° West  Level Estimated
03:26AM 65.5940 111.4642 309° West  Level Estimated
03:27AM 65.6741 111.2249 309° West  Level Estimated
03:28AM 65.7538 110.9842 309° West  Level Estimated
03:29AM 65.8332 110.7420 309° West  Level Estimated
03:30AM 65.9121 110.4983 309° West  Level Estimated
03:31AM 65.9907 110.2531 308° West  Level Estimated
03:32AM 66.0689 110.0064 308° West  Level Estimated
03:33AM 66.1467 109.7582 308° West  Level Estimated
03:34AM 66.2240 109.5085 308° West  Level Estimated
03:35AM 66.3010 109.2572 307° West  Level Estimated
03:36AM 66.3776 109.0043 307° West  Level Estimated
03:37AM 66.4537 108.7500 307° West  Level Estimated
03:38AM 66.5295 108.4941 307° West  Level Estimated
03:39AM 66.6048 108.2366 306° West  Level Estimated
03:40AM 66.6797 107.9775 306° West  Level Estimated
03:41AM 66.7541 107.7169 306° West  Level Estimated
03:42AM 66.8282 107.4547 306° West  Level Estimated
03:43AM 66.9018 107.1910 306° West  Level Estimated
03:44AM 66.9749 106.9256 305° West  Level Estimated
03:45AM 67.0475 106.6590 305° West  Level Estimated
03:46AM 67.1197 106.3909 305° West  Level Estimated
03:47AM 67.1914 106.1211 305° West  Level Estimated
03:48AM 67.2626 105.8497 304° West  Level Estimated
03:49AM 67.3334 105.5768 304° West  Level Estimated
03:50AM 67.4037 105.3022 304° West  Level Estimated
03:51AM 67.4736 105.0260 304° West  Level Estimated
03:52AM 67.5430 104.7481 303° West  Level Estimated
03:53AM 67.6119 104.4687 303° West  Level Estimated
03:54AM 67.6803 104.1876 303° West  Level Estimated
03:55AM 67.7483 103.9044 302° West  Level Estimated
03:56AM 67.8159 103.6197 302° West  Level Estimated
03:57AM 67.8829 103.3332 302° West  Level Estimated
03:58AM 67.9494 103.0452 302° West  Level Estimated
03:59AM 68.0155 102.7554 301° West  Level Estimated
04:00AM 68.0810 102.4641 301° West  Level Estimated
04:01AM 68.1460 102.1710 301° West  Level Estimated
04:02AM 68.2105 101.8764 301° West  Level Estimated
04:03AM 68.2744 101.5800 300° West  Level Estimated
04:04AM 68.3379 101.2820 300° West  Level Estimated
04:05AM 68.4007 100.9824 300° West  Level Estimated
04:06AM 68.4631 100.6810 300° West  Level Estimated
04:07AM 68.5249 100.3781 299° West  Level Estimated
04:08AM 68.5862 100.0734 299° West  Level Estimated
04:09AM 68.6468 99.7676 299° West  Level Estimated
04:10AM 68.7068 99.4601 298° West  Level Estimated
04:11AM 68.7663 99.1509 298° West  Level Estimated
04:12AM 68.8253 98.8401 298° West  Level Estimated
04:13AM 68.8836 98.5277 298° West  Level Estimated
04:14AM 68.9414 98.2136 297° West  Level Estimated
04:15AM 68.9986 97.8978 297° West  Level Estimated
04:16AM 69.0553 97.5805 297° West  Level Estimated
04:17AM 69.1113 97.2615 296° West  Level Estimated
04:18AM 69.1667 96.9408 296° West  Level Estimated
04:19AM 69.2216 96.6186 296° West  Level Estimated
04:20AM 69.2758 96.2947 295° West  Level Estimated
04:21AM 69.3294 95.9692 295° West  Level Estimated
04:22AM 69.3824 95.6421 295° West  Level Estimated
04:23AM 69.4348 95.3134 295° West  Level Estimated
04:24AM 69.4866 94.9830 294° West  Level Estimated
04:25AM 69.5377 94.6512 294° West  Level Estimated
04:26AM 69.5882 94.3177 294° West  Level Estimated
04:27AM 69.6381 93.9826 293° West  Level Estimated
04:28AM 69.6873 93.6460 293° West  Level Estimated
04:29AM 69.7359 93.3078 293° West  Level Estimated
04:30AM 69.7838 92.9681 292° West  Level Estimated
04:31AM 69.8311 92.6268 292° West  Level Estimated
04:32AM 69.8777 92.2841 292° West  Level Estimated
04:33AM 69.9237 91.9398 291° West  Level Estimated
04:34AM 69.9689 91.5940 291° West  Level Estimated
04:35AM 70.0135 91.2467 291° West  Level Estimated
04:36AM 70.0575 90.8979 290° West  Level Estimated
04:37AM 70.1007 90.5477 290° West  Level Estimated
04:38AM 70.1433 90.1960 290° West  Level Estimated
04:39AM 70.1852 89.8423 289° West  Level Estimated
04:40AM 70.2264 89.4873 289° West  Level Estimated
04:41AM 70.2669 89.1308 289° West  Level Estimated
04:42AM 70.3067 88.7729 288° West  Level Estimated
04:43AM 70.3458 88.4137 288° West  Level Estimated
04:44AM 70.3842 88.0530 288° West  Level Estimated
04:45AM 70.4219 87.6911 287° West  Level Estimated
04:46AM 70.4588 87.3278 287° West  Level Estimated
04:47AM 70.4950 86.9632 287° West  Level Estimated
04:48AM 70.5305 86.5973 286° West  Level Estimated
04:49AM 70.5652 86.2301 286° West  Level Estimated
04:50AM 70.5992 85.8617 286° West  Level Estimated
04:51AM 70.6325 85.4921 285° West  Level Estimated
04:52AM 70.6650 85.1212 285° West  Level Estimated
04:53AM 70.6967 84.7492 285° West  Level Estimated
04:54AM 70.7277 84.3760 284° West  Level Estimated
04:55AM 70.7580 84.0017 284° West  Level Estimated
04:56AM 70.7874 83.6262 284° West  Level Estimated
04:57AM 70.8161 83.2496 283° West  Level Estimated
04:58AM 70.8441 82.8720 283° West  Level Estimated
04:59AM 70.8712 82.4933 283° West  Level Estimated
05:00AM 70.8976 82.1136 282° West  Level Estimated
05:01AM 70.9232 81.7329 282° West  Level Estimated
05:02AM 70.9481 81.3513 281° West  Level Estimated
05:03AM 70.9721 80.9687 281° West  Level Estimated
05:04AM 70.9953 80.5852 281° West  Level Estimated
05:05AM 71.0178 80.2008 280° West  Level Estimated
05:06AM 71.0394 79.8155 280° West  Level Estimated
05:07AM 71.0603 79.4294 280° West  Level Estimated
05:08AM 71.0804 79.0425 279° West  Level Estimated
05:09AM 71.0996 78.6548 279° West  Level Estimated
05:10AM 71.1181 78.2663 279° West  Level Estimated
05:11AM 71.1357 77.8772 278° West  Level Estimated
05:12AM 71.1525 77.4874 278° West  Level Estimated
05:13AM 71.1686 77.0969 277° West  Level Estimated
05:14AM 71.1838 76.7057 277° West  Level Estimated
05:15AM 71.1982 76.3140 277° West  Level Estimated
05:16AM 71.2117 75.9218 276° West  Level Estimated
05:17AM 71.2245 75.5290 276° West  Level Estimated
05:18AM 71.2364 75.1357 276° West  Level Estimated
05:19AM 71.2475 74.7419 275° West  Level Estimated
05:20AM 71.2578 74.3477 275° West  Level Estimated
05:21AM 71.2673 73.9531 274° West  Level Estimated
05:22AM 71.2759 73.5576 274° West  Level Estimated
05:23AM 71.2837 73.1617 274° West  Level Estimated
05:24AM 71.2907 72.7655 273° West  Level Estimated
05:25AM 71.2968 72.3690 273° West  Level Estimated
05:26AM 71.3021 71.9724 273° West  Level Estimated
05:27AM 71.3066 71.5755 272° West  Level Estimated
05:28AM 71.3103 71.1784 272° West  Level Estimated
05:29AM 71.3131 70.7813 271° West  Level Estimated
05:30AM 71.3150 70.3840 271° West  Level Estimated
05:31AM 71.3162 69.9866 271° West  Level Estimated
05:32AM 71.3165 69.5893 270° West  Level Estimated
05:33AM 71.3159 69.1925 270° West  Level Estimated
05:34AM 71.3146 68.7957 270° West  Level Estimated
05:35AM 71.3124 68.3990 269° West  Level Estimated
05:36AM 71.3093 68.0025 269° West  Level Estimated
05:37AM 71.3055 67.6060 268° West  Level Estimated
05:38AM 71.3008 67.2098 268° West  Level Estimated
05:39AM 71.2952 66.8138 268° West  Level Estimated
05:40AM 71.2889 66.4180 267° West  Level Estimated
05:41AM 71.2817 66.0224 267° West  Level Estimated
05:42AM 71.2736 65.6272 267° West  Level Estimated
05:43AM 71.2648 65.2324 266° West  Level Estimated
05:44AM 71.2551 64.8379 266° West  Level Estimated
05:45AM 71.2446 64.4438 265° West  Level Estimated
05:46AM 71.2333 64.0501 265° West  Level Estimated
05:47AM 71.2211 63.6570 265° West  Level Estimated
05:48AM 71.2081 63.2643 264° West  Level Estimated
05:49AM 71.1944 62.8722 264° West  Level Estimated
05:50AM 71.1797 62.4807 264° West  Level Estimated
05:51AM 71.1643 62.0897 263° West  Level Estimated
05:52AM 71.1481 61.6994 263° West  Level Estimated
05:53AM 71.1310 61.3097 262° West  Level Estimated
05:54AM 71.1132 60.9208 262° West  Level Estimated
05:55AM 71.0945 60.5325 262° West  Level Estimated
05:56AM 71.0750 60.1451 261° West  Level Estimated
05:57AM 71.0547 59.7584 261° West  Level Estimated
05:58AM 71.0337 59.3725 261° West  Level Estimated
05:59AM 71.0118 58.9874 260° West  Level Estimated
06:00AM 70.9891 58.6032 260° West  Level Estimated
06:01AM 70.9657 58.2200 260° West  Level Estimated
06:02AM 70.9414 57.8376 259° West  Level Estimated
06:03AM 70.9164 57.4562 259° West  Level Estimated
06:04AM 70.8906 57.0758 258° West  Level Estimated
06:05AM 70.8640 56.6964 258° West  Level Estimated
06:06AM 70.8366 56.3180 258° West  Level Estimated
06:07AM 70.8084 55.9406 257° West  Level Estimated
06:08AM 70.7795 55.5644 257° West  Level Estimated
06:09AM 70.7499 55.1892 257° West  Level Estimated
06:10AM 70.7194 54.8152 256° West  Level Estimated
06:11AM 70.6882 54.4423 256° West  Level Estimated
06:12AM 70.6563 54.0706 256° West  Level Estimated
06:13AM 70.6236 53.7000 255° West  Level Estimated
06:14AM 70.5901 53.3307 255° West  Level Estimated
06:15AM 70.5559 52.9627 255° West  Level Estimated
06:16AM 70.5210 52.5958 254° West  Level Estimated
06:17AM 70.4853 52.2303 254° West  Level Estimated
06:18AM 70.4489 51.8661 254° West  Level Estimated
06:19AM 70.4118 51.5031 253° West  Level Estimated
06:20AM 70.3739 51.1415 253° West  Level Estimated
06:21AM 70.3353 50.7813 253° West  Level Estimated
06:22AM 70.2960 50.4224 252° West  Level Estimated
06:23AM 70.2560 50.0649 252° West  Level Estimated
06:24AM 70.2153 49.7088 251° West  Level Estimated
06:25AM 70.1739 49.3541 251° West  Level Estimated
06:26AM 70.1318 49.0009 251° West  Level Estimated
06:27AM 70.0890 48.6491 250° West  Level Estimated
06:28AM 70.0455 48.2987 250° West  Level Estimated
06:29AM 70.0013 47.9498 250° West  Level Estimated
06:30AM 69.9565 47.6025 250° West  Level Estimated
06:31AM 69.9109 47.2566 249° West  Level Estimated
06:32AM 69.8648 46.9122 249° West  Level Estimated
06:33AM 69.8179 46.5693 249° West  Level Estimated
06:34AM 69.7703 46.2280 248° West  Level Estimated
06:35AM 69.7222 45.8882 248° West  Level Estimated
06:36AM 69.6733 45.5500 248° West  Level Estimated
06:37AM 69.6238 45.2133 247° West  Level Estimated
06:38AM 69.5737 44.8783 247° West  Level Estimated
06:39AM 69.5230 44.5448 247° West  Level Estimated
06:40AM 69.4716 44.2128 246° West  Level Estimated
06:41AM 69.4195 43.8825 246° West  Level Estimated
06:42AM 69.3669 43.5538 246° West  Level Estimated
06:43AM 69.3136 43.2267 245° Southwest  Level Estimated
06:44AM 69.2597 42.9012 245° Southwest  Level Estimated
06:45AM 69.2052 42.5773 245° Southwest  Level Estimated
06:45AM 67.3570 41.3000 244° Southwest 454 522 34,000  Level FlightAware
06:46AM 69.1501 42.2551 244° Southwest  Level Estimated
06:46AM 67.3370 41.1760 247° West 454 522 34,000  Level FlightAware
06:47AM 67.3090 41.0060 247° West 454 522 34,000  Level FlightAware
06:48AM 67.2810 40.8350 247° West 454 522 34,000  Level FlightAware
06:48AM 67.2530 40.6650 247° West 454 522 34,000  Level FlightAware
06:49AM 67.2180 40.4530 247° West 454 522 34,000  Level FlightAware
06:50AM 67.1900 40.2830 247° West 454 522 34,000  Level FlightAware
06:50AM 67.1620 40.1140 247° West 454 522 34,000  Level FlightAware
06:51AM 67.1340 39.9450 247° West 454 522 34,000  Level FlightAware
06:52AM 67.1070 39.7760 248° West 454 522 34,000  Level FlightAware
06:53AM 67.0720 39.5650 247° West 454 522 34,000  Level FlightAware
06:53AM 67.0440 39.3960 247° West 454 522 34,000  Level FlightAware
06:54AM 67.0160 39.2270 247° West 454 522 34,000  Level FlightAware
06:55AM 66.9880 39.0590 247° West 454 522 34,000  Level FlightAware
06:55AM 66.9600 38.8910 247° West 454 522 34,000  Level FlightAware
06:58AM 66.8298 38.2240 244° Southwest  Level Estimated
06:59AM 66.7723 37.9362 243° Southwest  Level Estimated
07:00AM 66.7143 37.6497 243° Southwest  Level Estimated
07:01AM 66.6558 37.3646 243° Southwest  Level Estimated
07:02AM 66.5968 37.0809 242° Southwest  Level Estimated
07:03AM 66.5372 36.7985 242° Southwest  Level Estimated
07:04AM 66.4772 36.5174 242° Southwest  Level Estimated
07:05AM 66.4166 36.2378 242° Southwest  Level Estimated
07:06AM 66.3556 35.9594 241° Southwest  Level Estimated
07:07AM 66.2940 35.6825 241° Southwest  Level Estimated
07:08AM 66.2320 35.4068 241° Southwest  Level Estimated
07:09AM 66.1695 35.1326 241° Southwest  Level Estimated
07:10AM 66.1065 34.8597 240° Southwest  Level Estimated
07:11AM 66.0430 34.5882 240° Southwest  Level Estimated
07:12AM 65.9790 34.3180 240° Southwest  Level Estimated
07:13AM 65.9146 34.0491 240° Southwest  Level Estimated
07:14AM 65.8497 33.7817 239° Southwest  Level Estimated
07:15AM 65.7843 33.5155 239° Southwest  Level Estimated
07:16AM 65.7185 33.2508 239° Southwest  Level Estimated
07:17AM 65.6523 32.9874 239° Southwest  Level Estimated
07:18AM 65.5855 32.7253 238° Southwest  Level Estimated
07:19AM 65.5183 32.4646 238° Southwest  Level Estimated
07:20AM 65.4507 32.2052 238° Southwest  Level Estimated
07:20AM 65.3790 31.3440 238° Southwest 464 534 34,000  Level FlightAware
07:21AM 65.3440 31.2030 239° Southwest 464 534 34,000  Level FlightAware
07:22AM 65.2890 30.9840 239° Southwest 464 534 34,000  Level FlightAware
07:22AM 65.2470 30.8190 239° Southwest 465 535 34,000  Level FlightAware
07:23AM 65.1960 30.6190 239° Southwest 466 536 34,000  Level FlightAware
07:24AM 65.1310 30.3650 239° Southwest 466 536 34,000  Level FlightAware
07:25AM 65.0850 30.1910 238° Southwest 468 539 34,000  Level FlightAware
07:26AM 65.0080 29.8970 238° Southwest 471 542 34,000  Level FlightAware
07:27AM 64.9620 29.7220 238° Southwest 473 544 34,000  Level FlightAware
07:27AM 64.9010 29.5340 233° Southwest 475 547 34,000  Level FlightAware
07:28AM 64.8560 29.4170 228° Southwest 476 548 34,000  Level FlightAware
07:28AM 64.8120 29.3060 227° Southwest 474 545 34,000  Level FlightAware
07:29AM 64.7530 29.1580 227° Southwest 473 544 34,000 660 Level FlightAware
07:30AM 64.6880 28.9970 227° Southwest 479 551 35,000 1,380 Climbing FlightAware
07:30AM 64.6290 28.8490 227° Southwest 481 554 35,900 1,500 Climbing FlightAware
07:31AM 64.5590 28.6750 227° Southwest 483 556 37,000 1,380 Climbing FlightAware
07:32AM 64.4970 28.5230 227° Southwest 482 555 37,900 720 Climbing FlightAware
07:32AM 64.4360 28.3760 226° Southwest 480 552 38,000 60 Climbing FlightAware
07:33AM 64.3700 28.2150 227° Southwest 483 556 38,000  Level FlightAware
07:34AM 64.3070 28.0660 226° Southwest 484 557 38,000  Level FlightAware
07:35AM 64.2360 27.8940 227° Southwest 485 558 38,000  Level FlightAware
07:35AM 64.1730 27.7460 226° Southwest 484 557 38,000  Level FlightAware
07:36AM 64.1030 27.5820 226° Southwest 482 555 38,000  Level FlightAware
07:37AM 64.0390 27.4340 225° Southwest 480 552 38,000  Level FlightAware
07:37AM 63.9710 27.2770 225° Southwest 478 550 38,000  Level FlightAware
07:38AM 63.9090 27.1350 225° Southwest 477 549 38,000  Level FlightAware
07:39AM 63.8380 26.9730 225° Southwest 477 549 38,000  Level FlightAware
07:39AM 63.7850 26.8520 225° Southwest 475 547 38,000  Level FlightAware
07:40AM 63.7180 26.7000 225° Southwest 475 547 38,000  Level FlightAware
07:41AM 63.6500 26.5480 225° Southwest 477 549 38,000  Level FlightAware
07:42AM 63.5840 26.4030 224° Southwest 476 548 38,000  Level FlightAware
07:42AM 63.5220 26.2660 225° Southwest 478 550 38,000  Level FlightAware
07:43AM 63.4580 26.1240 225° Southwest 476 548 38,000  Level FlightAware
07:44AM 63.3930 25.9740 226° Southwest 478 550 38,000  Level FlightAware
07:44AM 63.3240 25.8180 225° Southwest 478 550 38,000  Level FlightAware
07:45AM 63.2570 25.6690 225° Southwest 478 550 38,000  Level FlightAware
07:46AM 63.1980 25.5380 225° Southwest 478 550 38,000  Level FlightAware
07:46AM 63.1270 25.3810 225° Southwest 478 550 38,000  Level FlightAware
07:47AM 63.0670 25.2480 225° Southwest 478 550 38,000  Level FlightAware
07:48AM 62.9940 25.0890 225° Southwest 479 551 38,000  Level FlightAware
07:49AM 62.9310 24.9540 224° Southwest 478 550 38,000  Level FlightAware
07:49AM 62.8700 24.8220 225° Southwest 478 550 38,000  Level FlightAware
07:50AM 62.7970 24.6660 224° Southwest 473 544 38,000  Level FlightAware
07:51AM 62.7340 24.5320 224° Southwest 473 544 38,000  Level FlightAware
07:51AM 62.6740 24.4060 224° Southwest 475 547 38,000  Level FlightAware
07:52AM 62.5990 24.2470 224° Southwest 475 547 38,000  Level FlightAware
07:53AM 62.5350 24.1150 224° Southwest 475 547 38,000  Level FlightAware
07:53AM 62.4630 23.9670 224° Southwest 473 544 38,000  Level FlightAware
07:54AM 62.3980 23.8330 224° Southwest 474 545 38,000  Level FlightAware
07:55AM 62.3280 23.6890 224° Southwest 475 547 38,000  Level FlightAware
07:56AM 62.2610 23.5550 223° Southwest 483 556 38,000  Level FlightAware
07:56AM 62.1950 23.4220 223° Southwest 481 554 38,000  Level FlightAware
07:57AM 62.1230 23.2770 223° Southwest 472 543 38,000  Level FlightAware
07:58AM 62.0590 23.1500 223° Southwest 468 539 38,000  Level FlightAware
07:58AM 61.9880 23.0090 223° Southwest 465 535 38,000  Level FlightAware
07:59AM 61.9230 22.8820 223° Southwest 467 537 38,000  Level FlightAware
08:00AM 61.8500 22.7400 223° Southwest 466 536 38,000  Level FlightAware
08:00AM 61.7860 22.6150 223° Southwest 468 539 38,000  Level FlightAware
08:01AM 61.7220 22.4920 222° Southwest 475 547 38,000  Level FlightAware
08:02AM 61.6490 22.3530 222° Southwest 477 549 38,000  Level FlightAware
08:03AM 61.5850 22.2310 222° Southwest 477 549 38,000  Level FlightAware
08:03AM 61.5170 22.1030 222° Southwest 475 547 38,000  Level FlightAware
08:04AM 61.4470 21.9710 222° Southwest 463 533 38,000  Level FlightAware
08:05AM 61.3870 21.8590 222° Southwest 460 529 38,000  Level FlightAware
08:05AM 61.3090 21.7130 222° Southwest 455 524 38,000  Level FlightAware
08:06AM 61.2480 21.6010 221° Southwest 455 524 38,000  Level FlightAware
08:07AM 61.1740 21.4650 222° Southwest 452 520 38,000  Level FlightAware
08:07AM 61.1110 21.3510 221° Southwest 449 517 38,000  Level FlightAware
08:08AM 61.0490 21.2380 221° Southwest 449 517 38,000  Level FlightAware
08:09AM 60.9860 21.1240 221° Southwest 450 518 38,000  Level FlightAware
08:10AM 60.9170 21.0010 221° Southwest 454 522 38,000  Level FlightAware
08:10AM 60.8530 20.8870 221° Southwest 458 527 38,000  Level FlightAware
08:11AM 60.7800 20.7570 221° Southwest 459 528 38,000  Level FlightAware
08:11AM 60.7320 20.6730 221° Southwest 460 529 38,000  Level FlightAware
08:12AM 60.6680 20.5600 221° Southwest 461 531 38,000  Level FlightAware
08:13AM 60.6130 20.4650 220° Southwest 465 535 38,000  Level FlightAware
08:13AM 60.5530 20.3610 220° Southwest 470 541 38,000  Level FlightAware
08:14AM 60.4970 20.2630 221° Southwest 473 544 38,000  Level FlightAware
08:15AM 60.4210 20.1320 220° Southwest 476 548 38,000  Level FlightAware
08:15AM 60.3560 20.0110 223° Southwest 468 539 38,000  Level FlightAware
08:16AM 60.2990 19.8840 228° Southwest 463 533 38,000  Level FlightAware
08:17AM 60.2360 19.7410 228° Southwest 462 532 38,000  Level FlightAware
08:17AM 60.1790 19.6120 228° Southwest 464 534 38,000  Level FlightAware
08:18AM 60.1150 19.4660 229° Southwest 461 531 38,000  Level FlightAware
08:19AM 60.0590 19.3390 229° Southwest 458 527 38,000  Level FlightAware
08:20AM 59.9970 19.2010 228° Southwest 455 524 38,000  Level FlightAware
08:20AM 59.9410 19.0760 228° Southwest 453 521 38,000  Level FlightAware
08:21AM 59.8860 18.9540 228° Southwest 453 521 38,000  Level FlightAware
08:22AM 59.8210 18.8100 228° Southwest 452 520 38,000  Level FlightAware
08:22AM 59.7650 18.6870 228° Southwest 452 520 38,000  Level FlightAware
08:23AM 59.7030 18.5520 228° Southwest 452 520 38,000  Level FlightAware
08:24AM 59.6460 18.4300 227° Southwest 452 520 38,000  Level FlightAware
08:24AM 59.5820 18.2930 227° Southwest 452 520 38,000  Level FlightAware
08:25AM 59.5260 18.1720 228° Southwest 449 517 38,000  Level FlightAware
08:26AM 59.4700 18.0530 227° Southwest 450 518 38,000  Level FlightAware
08:27AM 59.4070 17.9190 227° Southwest 451 519 38,000  Level FlightAware
08:27AM 59.3500 17.7990 227° Southwest 450 518 38,000  Level FlightAware
08:28AM 59.2930 17.6790 227° Southwest 453 521 38,000  Level FlightAware
08:29AM 59.2300 17.5470 227° Southwest 455 524 38,000  Level FlightAware
08:29AM 59.1720 17.4270 227° Southwest 456 525 38,000  Level FlightAware
08:30AM 59.1060 17.2910 227° Southwest 458 527 38,000  Level FlightAware
08:31AM 59.0460 17.1690 226° Southwest 459 528 38,000  Level FlightAware
08:31AM 58.9830 17.0410 226° Southwest 461 531 38,000  Level FlightAware
08:32AM 58.9230 16.9200 226° Southwest 463 533 38,000  Level FlightAware
08:33AM 58.8640 16.8000 226° Southwest 465 535 38,000  Level FlightAware
08:34AM 58.7960 16.6650 226° Southwest 463 533 38,000  Level FlightAware
08:34AM 58.7370 16.5460 226° Southwest 464 534 38,000  Level FlightAware
08:35AM 58.6700 16.4130 226° Southwest 463 533 38,000  Level FlightAware
08:36AM 58.6120 16.2990 226° Southwest 463 533 38,000  Level FlightAware
08:36AM 58.5520 16.1820 226° Southwest 465 535 38,000  Level FlightAware
08:37AM 58.4830 16.0460 226° Southwest 465 535 38,000  Level FlightAware
08:38AM 58.4220 15.9290 225° Southwest 463 533 38,000  Level FlightAware
08:38AM 58.3620 15.8130 225° Southwest 465 535 38,000  Level FlightAware
08:39AM 58.2950 15.6850 225° Southwest 466 536 38,000  Level FlightAware
08:40AM 58.2350 15.5700 225° Southwest 466 536 38,000  Level FlightAware
08:40AM 58.1740 15.4540 225° Southwest 466 536 38,000  Level FlightAware
08:41AM 58.1050 15.3230 225° Southwest 468 539 38,000  Level FlightAware
08:42AM 58.0380 15.1980 225° Southwest 468 539 38,000  Level FlightAware
08:43AM 57.9770 15.0830 225° Southwest 466 536 38,000  Level FlightAware
08:43AM 57.9150 14.9680 225° Southwest 468 539 38,000  Level FlightAware
08:44AM 57.8430 14.8370 224° Southwest 468 539 38,000  Level FlightAware
08:45AM 57.7820 14.7230 225° Southwest 468 539 38,000  Level FlightAware
08:45AM 57.7200 14.6100 224° Southwest 468 539 38,000  Level FlightAware
08:46AM 57.6540 14.4910 224° Southwest 470 541 38,000  Level FlightAware
08:47AM 57.5890 14.3730 224° Southwest 471 542 38,000  Level FlightAware
08:48AM 57.5190 14.2470 224° Southwest 471 542 38,000  Level FlightAware
08:48AM 57.4570 14.1360 224° Southwest 472 543 38,000  Level FlightAware
08:49AM 57.3930 14.0220 224° Southwest 472 543 38,000  Level FlightAware
08:50AM 57.3220 13.8950 224° Southwest 474 545 38,000  Level FlightAware
08:50AM 57.2590 13.7860 223° Southwest 476 548 38,000  Level FlightAware
08:51AM 57.1890 13.6620 224° Southwest 476 548 38,000  Level FlightAware
08:52AM 57.1250 13.5510 223° Southwest 473 544 38,000  Level FlightAware
08:52AM 57.0630 13.4430 223° Southwest 476 548 38,000  Level FlightAware
08:53AM 56.9890 13.3160 223° Southwest 476 548 38,000  Level FlightAware
08:54AM 56.9270 13.2090 223° Southwest 476 548 38,000  Level FlightAware
08:54AM 56.8640 13.1020 223° Southwest 477 549 38,000  Level FlightAware
08:55AM 56.7900 12.9750 223° Southwest 477 549 38,000  Level FlightAware
08:56AM 56.7250 12.8640 223° Southwest 478 550 38,000  Level FlightAware
08:57AM 56.6530 12.7330 225° Southwest 478 550 38,000  Level FlightAware
08:57AM 56.5930 12.6190 226° Southwest 479 551 38,000  Level FlightAware
08:58AM 56.5270 12.4910 227° Southwest 479 551 38,000  Level FlightAware
08:59AM 56.4650 12.3750 226° Southwest 480 552 38,000  Level FlightAware
08:59AM 56.4050 12.2600 227° Southwest 482 555 38,000  Level FlightAware
09:00AM 56.3340 12.1260 226° Southwest 483 556 38,000  Level FlightAware
09:01AM 56.2710 12.0090 226° Southwest 483 556 38,000  Level FlightAware
09:01AM 56.2180 11.9110 226° Southwest 485 558 38,000  Level FlightAware
09:02AM 56.1420 11.7700 226° Southwest 487 560 38,000  Level FlightAware
09:03AM 56.0790 11.6530 226° Southwest 487 560 38,000  Level FlightAware
09:04AM 56.0070 11.5220 226° Southwest 487 560 38,000  Level FlightAware
09:04AM 55.9450 11.4100 225° Southwest 487 560 38,000  Level FlightAware
09:05AM 55.8840 11.2980 226° Southwest 487 560 38,000  Level FlightAware
09:06AM 55.8110 11.1680 225° Southwest 482 555 38,000  Level FlightAware
09:06AM 55.7470 11.0510 226° Southwest 481 554 38,000  Level FlightAware
09:07AM 55.6740 10.9230 225° Southwest 481 554 38,000  Level FlightAware
09:08AM 55.6110 10.8110 225° Southwest 482 555 38,000  Level FlightAware
09:09AM 55.5390 10.6830 225° Southwest 483 556 38,000  Level FlightAware
09:09AM 55.4760 10.5730 225° Southwest 483 556 38,000  Level FlightAware
09:10AM 55.4040 10.4470 225° Southwest 483 556 38,000  Level FlightAware
09:11AM 55.3400 10.3350 225° Southwest 481 554 38,000  Level FlightAware
09:11AM 55.2760 10.2260 224° Southwest 481 554 38,000  Level FlightAware
09:12AM 55.2040 10.1010 225° Southwest 481 554 38,000  Level FlightAware
09:13AM 55.1480 10.0050 224° Southwest 482 555 38,000  Level FlightAware
09:13AM 55.0750 9.8810 224° Southwest 490 564 38,000  Level FlightAware
09:14AM 55.0100 9.7720 224° Southwest 490 564 38,000  Level FlightAware
09:15AM 54.9360 9.6470 224° Southwest 490 564 38,000  Level FlightAware
09:15AM 54.8730 9.5400 224° Southwest 490 564 38,000  Level FlightAware
09:16AM 54.8070 9.4310 224° Southwest 490 564 38,000  Level FlightAware
09:17AM 54.7320 9.3110 223° Southwest 490 564 38,000  Level FlightAware
09:18AM 54.6650 9.2100 221° Southwest 490 564 38,000  Level FlightAware
09:18AM 54.5960 9.1080 221° Southwest 490 564 38,000  Level FlightAware
09:19AM 54.5190 8.9950 220° Southwest 490 564 38,000  Level FlightAware
09:20AM 54.4460 8.8880 220° Southwest 490 564 38,000  Level FlightAware
09:20AM 54.3680 8.7760 220° Southwest 491 565 38,000  Level FlightAware
09:21AM 54.3010 8.6780 220° Southwest 491 565 38,000  Level FlightAware
09:22AM 54.2330 8.5800 220° Southwest 492 566 38,000  Level FlightAware
09:22AM 54.1720 8.4920 220° Southwest 491 565 38,000  Level FlightAware
09:23AM 54.0900 8.3750 220° Southwest 491 565 38,000  Level FlightAware
09:24AM 54.0240 8.2810 220° Southwest 490 564 38,000  Level FlightAware
09:24AM 53.9460 8.1690 220° Southwest 489 563 38,000  Level FlightAware
09:25AM 53.8750 8.0700 219° Southwest 489 563 38,000  Level FlightAware
09:26AM 53.8060 7.9720 220° Southwest 490 564 38,000  Level FlightAware
09:27AM 53.7280 7.8630 220° Southwest 490 564 38,000  Level FlightAware
09:27AM 53.6580 7.7650 220° Southwest 491 565 38,000  Level FlightAware
09:28AM 53.5900 7.6710 219° Southwest 491 565 38,000  Level FlightAware
09:29AM 53.5080 7.5600 219° Southwest 490 564 38,000  Level FlightAware
09:29AM 53.4350 7.4710 216° Southwest 490 564 38,000  Level FlightAware
09:30AM 53.3530 7.3770 214° Southwest 490 564 38,000  Level FlightAware
09:31AM 53.2800 7.2970 213° Southwest 489 563 38,000  Level FlightAware
09:31AM 53.1990 7.2080 213° Southwest 489 563 38,000  Level FlightAware
09:32AM 53.1200 7.1220 213° Southwest 489 563 38,000  Level FlightAware
09:33AM 53.0480 7.0430 213° Southwest 489 563 38,000  Level FlightAware
09:33AM 52.9760 6.9650 213° Southwest 489 563 38,000 -1,620 Level FlightAware
09:34AM 52.9227 6.9069 213° Southwest 1 1 36,400  Descending FlightAware UK
09:34AM 52.8920 6.8740 213° Southwest 491 565 38,000 1,560 Climbing FlightAware
09:35AM 52.8110 6.7860 213° Southwest 493 567 38,000  Level FlightAware
09:35AM 52.7430 6.7130 213° Southwest 493 567 38,000  Level FlightAware
09:36AM 52.6500 6.6140 213° Southwest 491 565 38,000  Level FlightAware
09:37AM 52.5770 6.5350 213° Southwest 488 562 38,000  Level FlightAware
09:38AM 52.4910 6.4440 213° Southwest 487 560 38,000  Level FlightAware
09:38AM 52.4160 6.3640 213° Southwest 485 558 38,000  Level FlightAware
09:39AM 52.3420 6.2870 212° Southwest 484 557 38,000  Level FlightAware
09:40AM 52.2650 6.2060 213° Southwest 482 555 38,000 -300 Level FlightAware
09:40AM 52.1910 6.1290 213° Southwest 478 550 37,600 -780 Descending FlightAware
09:41AM 52.1160 6.0500 213° Southwest 492 566 37,000 -480 Descending FlightAware
09:42AM 52.0350 5.9670 212° Southwest 489 563 37,000  Level FlightAware
09:42AM 51.9720 5.9010 213° Southwest 487 560 37,000  Level FlightAware
09:43AM 51.8960 5.8240 212° Southwest 487 560 37,000 -1,500 Level FlightAware
09:43AM 51.8398 5.7672 212° Southwest 472 543 35,400 -2,100 Descending FlightAware UK
09:44AM 51.8065 5.7328 213° Southwest 470 541 35,500 4,800 Climbing FlightAware UK
09:44AM 51.8110 5.7360 213° Southwest 487 560 37,000  Climbing FlightAware
09:44AM 51.7737 5.6988 213° Southwest 470 541 35,500 -2,880 Descending FlightAware UK
09:44AM 51.7385 5.6630 212° Southwest 470 541 35,400 3,720 Descending FlightAware UK
09:44AM 51.7350 5.6580 212° Southwest 489 563 37,000 240 Climbing FlightAware
09:45AM 51.6955 5.6187 212° Southwest 470 541 35,500  Descending FlightAware UK
09:45AM 51.6580 5.5800 212° Southwest 490 564 37,000  Climbing FlightAware
09:45AM 51.5917 5.5136 212° Southwest 472 543 35,500  Descending FlightAware UK
09:46AM 51.5730 5.4940 212° Southwest 491 565 37,000  Climbing FlightAware
09:46AM 51.5104 5.4319 212° Southwest 474 545 35,500  Descending FlightAware UK
09:46AM 51.4930 5.4140 212° Southwest 490 564 37,000  Climbing FlightAware
09:47AM 51.4299 5.3511 212° Southwest 476 548 35,500  Descending FlightAware UK
09:47AM 51.4210 5.3410 212° Southwest 488 562 37,000 1,620 Climbing FlightAware
09:48AM 51.3330 5.2540 212° Southwest 485 558 37,000 -1,440 Level FlightAware
09:48AM 51.2928 5.2147 212° Southwest 474 545 35,500  Descending FlightAware UK
09:48AM 51.2550 5.1760 212° Southwest 484 557 37,000  Climbing FlightAware
09:49AM 51.2124 5.1345 212° Southwest 472 543 35,500 -2,580 Descending FlightAware UK
09:49AM 51.1786 5.1011 212° Southwest 472 543 35,400 3,600 Descending FlightAware UK
09:49AM 51.1680 5.0900 212° Southwest 482 555 37,000 240 Climbing FlightAware
09:49AM 51.1332 5.0560 212° Southwest 472 543 35,500 -2,580 Descending FlightAware UK
09:50AM 51.0996 5.0229 212° Southwest 472 543 35,500 4,980 Level FlightAware UK
09:50AM 51.1110 5.0340 212° Southwest 482 555 37,000 1,800 Climbing FlightAware
09:50AM 51.0350 4.9590 212° Southwest 482 555 36,700 -1,680 Descending FlightAware
09:51AM 50.9440 4.8700 212° Southwest 496 571 34,700 -2,340 Descending FlightAware
09:52AM 50.8650 4.7930 212° Southwest 498 573 33,400 -1,800 Descending FlightAware
09:53AM 50.7860 4.7170 211° Southwest 504 580 32,300 -1,380 Descending FlightAware
09:53AM 50.7140 4.6470 212° Southwest 505 581 31,700 -1,200 Descending FlightAware
09:54AM 50.6485 4.5834 212° Southwest 30,900 -1,260 Descending FlightAware ADS-B
09:54AM 50.5872 4.5244 211° Southwest 509 586 30,400 -1,200 Descending FlightAware ADS-B
09:55AM 50.5031 4.4441 211° Southwest 504 580 29,500 -2,460 Descending FlightAware ADS-B
09:55AM 50.4391 4.3841 211° Southwest 1 1 27,400 -3,480 Descending FlightAware UK
09:56AM 50.4014 4.3441 214° Southwest 1 1 26,600 660 Descending FlightAware UK
09:56AM 50.3840 4.3310 214° Southwest 488 562 27,800 -2,220 Climbing FlightAware
09:56AM 50.3345 4.2837 214° Southwest 1 1 25,300 -2,100 Descending FlightAware UK
09:57AM 50.3060 4.2560 214° Southwest 465 535 26,400 -1,440 Climbing FlightAware
09:57AM 50.2558 4.2088 214° Southwest 1 1 24,300 -840 Descending FlightAware UK
09:57AM 50.2456 4.1996 214° Southwest 438 504 26,000 120 Climbing FlightAware ADS-B
09:58AM 50.1959 4.1516 214° Southwest 1 1 24,400  Descending FlightAware UK
09:58AM 50.1791 4.1377 214° Southwest 424 488 26,000 3,840 Climbing FlightAware ADS-B
09:58AM 50.1559 4.1216 204° Southwest 415 478 26,000  Level FlightAware ADS-B
09:58AM 50.1469 4.1168 199° South 411 473 26,000  Level FlightAware ADS-B
09:59AM 50.1000 4.1047 189° South 400 460 26,000 -2,040 Level FlightAware ADS-B
09:59AM 50.0571 4.1008 189° South 1 1 24,400 -1,140 Descending FlightAware UK
09:59AM 50.0307 4.0990 189° South 397 457 25,300 -180 Climbing FlightAware ADS-B
10:00AM 49.9758 4.0952 183° South 393 452 24,300 -4,020 Descending FlightAware ADS-B
10:00AM 49.9522 4.0984 183° South 1 1 22,300 -1,800 Descending FlightAware UK
10:00AM 49.9148 4.0904 183° South 384 442 23,300 60 Climbing FlightAware ADS-B
10:01AM 49.8587 4.0862 183° South 379 436 22,400 -1,740 Descending FlightAware ADS-B
10:01AM 49.8040 4.0823 183° South 372 428 21,500 -1,680 Descending FlightAware ADS-B
10:02AM 49.7481 4.0783 183° South 361 415 20,600 -1,740 Descending FlightAware ADS-B
10:02AM 49.6973 4.0745 183° South 356 410 19,700 -1,920 Descending FlightAware ADS-B
10:03AM 49.6758 4.0718 185° South 354 407 19,200 -2,280 Descending FlightAware ADS-B
10:03AM 49.6477 4.0587 197° South 358 412 18,500 -2,520 Descending FlightAware ADS-B
10:03AM 49.6389 4.0514 208° Southwest 360 414 18,200 -2,400 Descending FlightAware ADS-B
10:03AM 49.6168 4.0234 219° Southwest 362 417 17,600 -2,280 Descending FlightAware ADS-B
10:03AM 49.6061 4.0017 233° Southwest 363 418 17,200 -2,340 Descending FlightAware ADS-B
10:04AM 49.5772 3.9337 237° Southwest 358 412 16,000 -2,100 Descending FlightAware ADS-B
10:04AM 49.5496 3.8667 238° Southwest 345 397 15,000 -1,920 Descending FlightAware ADS-B
10:05AM 49.5233 3.8036 237° Southwest 337 388 14,000 -1,800 Descending FlightAware ADS-B
10:06AM 49.4974 3.7425 237° Southwest 332 382 13,200 -1,020 Descending FlightAware ADS-B
10:06AM 49.4718 3.6827 237° Southwest 329 379 13,000 -240 Descending FlightAware ADS-B
10:06AM 49.4546 3.6423 237° Southwest 328 377 13,000  Level FlightAware ADS-B
10:07AM 49.4437 3.6215 231° Southwest 327 376 13,000  Level FlightAware ADS-B
10:07AM 49.4122 3.5703 227° Southwest 327 376 13,000  Level FlightAware ADS-B
10:08AM 49.3816 3.5211 226° Southwest 299 344 13,000 -720 Level FlightAware ADS-B
10:08AM 49.3537 3.4760 226° Southwest 290 334 12,300 -1,500 Descending FlightAware ADS-B
10:08AM 49.3338 3.4506 220° Southwest 284 327 11,800 -1,740 Descending FlightAware ADS-B
10:09AM 49.2991 3.4127 215° Southwest 281 323 10,800 -1,860 Descending FlightAware ADS-B
10:09AM 49.2715 3.3831 215° Southwest 286 329 10,000 -1,800 Descending FlightAware ADS-B
10:10AM 49.2553 3.3656 215° Southwest 284 327 9,600 -1,740 Descending FlightAware ADS-B
10:10AM 49.2370 3.3460 215° Southwest 280 322 9,100 -1,680 Descending FlightAware ADS-B
10:10AM 49.2206 3.3284 215° Southwest 277 319 8,700 -1,800 Descending FlightAware ADS-B
10:10AM 49.2045 3.3112 215° Southwest 276 318 8,200 -1,800 Descending FlightAware ADS-B
10:11AM 49.1878 3.2937 215° Southwest 274 315 7,800 -1,740 Descending FlightAware ADS-B
10:11AM 49.1710 3.2762 214° Southwest 273 314 7,300 -1,980 Descending FlightAware ADS-B
10:11AM 49.1553 3.2598 214° Southwest 274 315 6,800 -1,740 Descending FlightAware ADS-B
10:11AM 49.1389 3.2379 221° Southwest 274 315 6,400 -1,320 Descending FlightAware ADS-B
10:12AM 49.1080 3.1919 224° Southwest 267 307 5,700 -1,200 Descending FlightAware ADS-B
10:12AM 49.0945 3.1718 224° Southwest 265 305 5,400 -1,380 Descending FlightAware ADS-B
10:13AM 49.0804 3.1511 224° Southwest 264 304 5,000 -1,500 Descending FlightAware ADS-B
10:13AM 49.0743 3.1411 227° Southwest 263 303 4,800 -1,380 Descending FlightAware ADS-B
10:13AM 49.0642 3.1193 235° Southwest 257 296 4,500 -1,440 Descending FlightAware ADS-B
10:13AM 49.0551 3.0964 239° Southwest 243 280 4,100 -1,140 Descending FlightAware ADS-B
10:13AM 49.0458 3.0727 239° Southwest 234 269 3,900 -600 Descending FlightAware ADS-B
10:14AM 49.0374 3.0512 239° Southwest 230 265 3,800 -420 Descending FlightAware ADS-B
10:14AM 49.0290 3.0298 239° Southwest 238 274 3,700  Descending FlightAware ADS-B
10:14AM 49.0209 3.0091 239° Southwest 233 268 3,800 300 Climbing FlightAware ADS-B
10:14AM 49.0189 3.0029 244° Southwest 233 268 3,800  Level FlightAware ADS-B
10:14AM 49.0175 2.9977 248° West 232 267 3,800  Level FlightAware ADS-B
10:14AM 49.0157 2.9886 253° West 232 267 3,800  Level FlightAware ADS-B
10:15AM 49.0146 2.9805 258° West 231 266 3,800  Level FlightAware ADS-B
10:15AM 49.0135 2.9635 264° West 227 261 3,800  Level FlightAware ADS-B
10:15AM 49.0128 2.9453 267° West 224 258 3,800  Level FlightAware ADS-B
10:15AM 49.0115 2.9207 265° West 223 257 3,800  Level FlightAware ADS-B
10:15AM 49.0103 2.8979 265° West 207 238 3,800 -420 Level FlightAware ADS-B
10:16AM 49.0091 2.8762 265° West 201 231 3,600 -900 Descending FlightAware ADS-B
10:16AM 49.0082 2.8593 265° West 198 228 3,400 -1,080 Descending FlightAware ADS-B
10:16AM 49.0071 2.8374 266° West 198 228 3,100 -1,140 Descending FlightAware ADS-B
10:16AM 49.0059 2.8146 265° West 195 224 2,800 -1,080 Descending FlightAware ADS-B
10:17AM 49.0051 2.7978 266° West 194 223 2,600 -1,080 Descending FlightAware ADS-B
10:17AM 49.0040 2.7771 265° West 189 217 2,300 -960 Descending FlightAware ADS-B
10:17AM 49.0029 2.7551 266° West 184 212 2,100 -960 Descending FlightAware ADS-B
10:17AM 49.0017 2.7332 265° West 186 214 1,800 -1,020 Descending FlightAware ADS-B
10:18AM 49.0005 2.7092 266° West 174 200 1,500 -1,020 Descending FlightAware ADS-B
10:18AM 48.9995 2.6909 265° West 163 188 1,200 -960 Descending FlightAware ADS-B
10:18AM 48.9989 2.6796 265° West 154 177 1,100 -540 Descending FlightAware ADS-B
10:18AM 48.9982 2.6660 266° West 147 169 1,000 -960 Descending FlightAware ADS-B
10:19AM 48.9975 2.6525 265° West 146 168 700 -1,080 Descending FlightAware ADS-B
10:19AM 48.9966 2.6364 265° West 144 166 500 -600 Descending FlightAware ADS-B
10:19AM 48.9959 2.6212 266° West 144 166 400 -600 Descending FlightAware ADS-B
10:19AM 48.9955 2.6144 265° West 145 167 300 -960 Descending FlightAware ADS-B
10:19AM 48.9952 2.6082 266° West 146 168 200 -900 Descending FlightAware ADS-B